createdAt,value
2023-03-11T11:40:13.761Z,100183.03
2023-03-11T11:42:44.029Z,100184.34
2023-03-11T11:45:20.622Z,100186.53
2023-03-11T11:47:50.845Z,100195.22
2023-03-11T11:50:37.684Z,100191.84
2023-03-11T11:53:22.269Z,100186.94
2023-03-11T11:55:50.933Z,100196.34
2023-03-11T11:58:17.401Z,100190.00
2023-03-11T12:01:13.411Z,100186.84
2023-03-11T12:04:09.096Z,100195.44
2023-03-11T12:06:44.321Z,100191.31
2023-03-11T12:09:29.239Z,100196.91
2023-03-11T12:12:14.137Z,100200.56
2023-03-11T12:15:01.819Z,100197.53
2023-03-11T12:17:31.266Z,100200.22
2023-03-11T12:20:06.711Z,100194.78
2023-03-11T12:22:35.770Z,100202.31
2023-03-11T12:25:14.156Z,100189.03
2023-03-11T12:27:49.492Z,100195.31
2023-03-11T12:30:20.016Z,100199.88
2023-03-11T12:32:52.561Z,100204.19
2023-03-11T12:35:30.727Z,100213.50
2023-03-11T12:38:05.578Z,100228.31
2023-03-11T12:40:49.189Z,100233.75
2023-03-11T12:43:47.581Z,100237.81
2023-03-11T12:46:16.100Z,100247.69
2023-03-11T12:48:46.903Z,100239.06
2023-03-11T12:51:33.383Z,100245.28
2023-03-11T12:54:21.109Z,100240.91
2023-03-11T12:57:05.239Z,100242.59
2023-03-11T12:59:49.784Z,100237.13
2023-03-11T13:02:53.883Z,100244.97
2023-03-11T13:05:38.695Z,100246.63
2023-03-11T13:08:13.806Z,100235.09
2023-03-11T13:10:43.119Z,100250.66
2023-03-11T13:13:30.582Z,100254.88
2023-03-11T13:15:57.929Z,100266.88
2023-03-11T13:18:26.342Z,100262.28
2023-03-11T13:20:57.751Z,100253.81
2023-03-11T13:23:36.511Z,100250.91
2023-03-11T13:26:35.994Z,100255.50
2023-03-11T13:29:20.536Z,100259.91
2023-03-11T13:32:00.165Z,100265.03
2023-03-11T13:34:55.669Z,100257.91
2023-03-11T13:38:14.864Z,100273.59
2023-03-11T13:40:43.570Z,100273.06
2023-03-11T13:43:22.497Z,100280.63
2023-03-11T13:46:01.210Z,100273.25
2023-03-11T13:48:32.701Z,100281.34
2023-03-11T13:51:04.535Z,100286.41
2023-03-11T13:53:37.379Z,100295.22
2023-03-11T13:56:04.153Z,100292.13
2023-03-11T13:58:30.458Z,100291.88
2023-03-11T14:01:01.774Z,100298.22
2023-03-11T14:03:40.319Z,100308.22
2023-03-11T14:06:11.606Z,100309.84
2023-03-11T14:08:39.228Z,100307.22
2023-03-11T14:11:13.362Z,100302.94
2023-03-11T14:13:46.342Z,100306.06
2023-03-11T14:16:19.821Z,100303.72
2023-03-11T14:19:01.267Z,100306.00
2023-03-11T14:21:27.725Z,100308.84
2023-03-11T14:23:55.477Z,100324.88
2023-03-11T14:26:29.148Z,100326.72
2023-03-11T14:28:59.366Z,100328.44
2023-03-11T14:31:35.798Z,100322.47
2023-03-11T14:34:11.223Z,100331.75
2023-03-11T14:36:42.758Z,100333.03
2023-03-11T14:39:30.289Z,100339.53
2023-03-11T14:42:07.557Z,100332.34
2023-03-11T14:44:41.563Z,100351.06
2023-03-11T14:47:36.021Z,100348.41
2023-03-11T14:50:06.472Z,100355.53
2023-03-11T14:52:47.940Z,100354.34
2023-03-11T14:55:19.876Z,100353.97
2023-03-11T14:57:51.967Z,100356.25
2023-03-11T15:00:25.858Z,100349.72
2023-03-11T15:03:10.686Z,100344.53
2023-03-11T15:05:44.925Z,100355.31
2023-03-11T15:08:11.398Z,100359.75
2023-03-11T15:10:37.710Z,100362.38
2023-03-11T15:13:10.607Z,100367.03
2023-03-11T15:15:36.916Z,100370.53
2023-03-11T15:18:03.458Z,100368.94
2023-03-11T15:20:32.809Z,100366.28
2023-03-11T15:23:04.404Z,100366.50
2023-03-11T15:25:37.816Z,100364.22
2023-03-11T15:28:24.547Z,100371.50
2023-03-11T15:31:11.658Z,100372.22
2023-03-11T15:33:38.804Z,100370.47
2023-03-11T15:36:05.504Z,100374.91
2023-03-11T15:38:31.852Z,100367.16
2023-03-11T15:41:00.358Z,100367.28
2023-03-11T15:43:47.062Z,100376.09
2023-03-11T15:46:13.446Z,100374.50
2023-03-11T15:48:39.761Z,100380.75
2023-03-11T15:51:06.136Z,100376.50
2023-03-11T15:53:32.456Z,100379.94
2023-03-11T15:56:10.203Z,100388.75
2023-03-11T15:58:37.726Z,100394.13
2023-03-11T16:01:04.121Z,100398.25
2023-03-11T16:03:31.547Z,100400.16
2023-03-11T16:05:57.951Z,100402.94
2023-03-11T16:08:24.204Z,100402.19
2023-03-11T16:10:50.536Z,100415.38
2023-03-11T16:13:16.820Z,100404.06
2023-03-11T16:15:43.557Z,100410.19
2023-03-11T16:18:10.425Z,100411.13
2023-03-11T16:20:51.852Z,100424.28
2023-03-11T16:23:24.786Z,100418.16
2023-03-11T16:25:55.686Z,100425.22
2023-03-11T16:28:21.963Z,100441.84
2023-03-11T16:30:50.771Z,100435.75
2023-03-11T16:33:17.388Z,100452.34
2023-03-11T16:35:43.839Z,100450.59
2023-03-11T16:38:10.363Z,100454.09
2023-03-11T16:40:37.018Z,100462.88
2023-03-11T16:43:08.717Z,100462.84
2023-03-11T16:45:35.242Z,100468.97
2023-03-11T16:48:01.633Z,100470.69
2023-03-11T16:50:28.324Z,100468.94
2023-03-11T16:52:56.165Z,100479.38
2023-03-11T16:55:24.279Z,100475.88
2023-03-11T16:57:50.697Z,100467.09
2023-03-11T17:00:17.540Z,100474.91
2023-03-11T17:02:44.731Z,100480.13
2023-03-11T17:05:11.565Z,100481.81
2023-03-11T17:07:39.504Z,100483.53
2023-03-11T17:10:06.966Z,100483.50
2023-03-11T17:12:33.326Z,100482.56
2023-03-11T17:15:00.064Z,100490.38
2023-03-11T17:17:26.364Z,100496.47
2023-03-11T17:19:52.640Z,100499.03
2023-03-11T17:22:19.086Z,100503.38
2023-03-11T17:24:45.369Z,100503.31
2023-03-11T17:27:11.764Z,100507.59
2023-03-11T17:29:38.081Z,100507.59
2023-03-11T17:32:04.659Z,100514.50
2023-03-11T17:34:30.937Z,100512.75
2023-03-11T17:36:57.241Z,100514.47
2023-03-11T17:39:23.674Z,100510.03
2023-03-11T17:41:49.990Z,100514.34
2023-03-11T17:44:16.279Z,100514.34
2023-03-11T17:46:42.613Z,100519.59
2023-03-11T17:49:13.384Z,100517.81
2023-03-11T17:51:39.838Z,100520.34
2023-03-11T17:54:06.604Z,100525.56
2023-03-11T17:56:32.869Z,100532.47
2023-03-11T17:58:59.193Z,100525.50
2023-03-11T18:01:27.369Z,100532.47
2023-03-11T18:03:54.502Z,100533.25
2023-03-11T18:06:21.701Z,100529.78
2023-03-11T18:08:48.250Z,100525.47
2023-03-11T18:11:18.937Z,100537.66
2023-03-11T18:13:45.858Z,100532.38
2023-03-11T18:16:15.799Z,100530.66
2023-03-11T18:18:43.140Z,100536.69
2023-03-11T18:21:21.018Z,100543.69
2023-03-11T18:23:47.608Z,100547.19
2023-03-11T18:26:16.722Z,100548.06
2023-03-11T18:28:43.271Z,100539.34
2023-03-11T18:31:14.566Z,100549.78
2023-03-11T18:33:42.907Z,100548.09
2023-03-11T18:36:13.541Z,100553.28
2023-03-11T18:38:39.952Z,100554.16
2023-03-11T18:41:06.317Z,100560.19
2023-03-11T18:43:32.742Z,100561.91
2023-03-11T18:46:00.641Z,100562.75
2023-03-11T18:48:27.360Z,100553.19
2023-03-11T18:50:55.092Z,100557.53
2023-03-11T18:53:21.689Z,100560.16
2023-03-11T18:55:48.521Z,100559.28
2023-03-11T18:58:14.811Z,100555.84
2023-03-11T19:00:41.230Z,100560.19
2023-03-11T19:03:10.765Z,100558.50
2023-03-11T19:05:37.264Z,100549.75
2023-03-11T19:08:04.178Z,100563.69
2023-03-11T19:10:30.785Z,100548.84
2023-03-11T19:12:57.070Z,100553.19
2023-03-11T19:15:23.365Z,100562.81
2023-03-11T19:18:00.527Z,100559.28
2023-03-11T19:20:32.523Z,100565.41
2023-03-11T19:22:58.843Z,100567.97
2023-03-11T19:25:27.494Z,100557.50
2023-03-11T19:27:55.325Z,100560.16
2023-03-11T19:30:21.964Z,100559.31
2023-03-11T19:32:48.343Z,100558.44
2023-03-11T19:35:14.713Z,100564.53
2023-03-11T19:37:41.007Z,100562.84
2023-03-11T19:40:11.003Z,100561.09
2023-03-11T19:42:37.643Z,100571.53
2023-03-11T19:45:04.513Z,100575.91
2023-03-11T19:47:30.816Z,100567.19
2023-03-11T19:49:57.132Z,100568.03
2023-03-11T19:52:23.439Z,100568.94
2023-03-11T19:54:50.248Z,100565.41
2023-03-11T19:57:16.655Z,100567.19
2023-03-11T19:59:43.222Z,100576.81
2023-03-11T20:02:13.202Z,100561.09
2023-03-11T20:04:42.974Z,100566.28
2023-03-11T20:07:09.423Z,100565.47
2023-03-11T20:09:35.693Z,100562.00
2023-03-11T20:12:02.025Z,100568.97
2023-03-11T20:14:28.434Z,100561.16
2023-03-11T20:16:54.764Z,100564.59
2023-03-11T20:19:21.412Z,100561.97
2023-03-11T20:21:47.702Z,100563.69
2023-03-11T20:24:14.152Z,100571.53
2023-03-11T20:26:40.735Z,100566.28
2023-03-11T20:29:07.149Z,100567.19
2023-03-11T20:31:33.510Z,100574.94
2023-03-11T20:33:59.972Z,100578.50
2023-03-11T20:36:29.109Z,100573.25
2023-03-11T20:38:56.191Z,100571.50
2023-03-11T20:41:23.941Z,100576.75
2023-03-11T20:43:55.199Z,100582.84
2023-03-11T20:46:22.042Z,100578.50
2023-03-11T20:48:48.508Z,100588.91
2023-03-11T20:51:17.523Z,100581.91
2023-03-11T20:53:43.863Z,100582.00
2023-03-11T20:56:16.053Z,100576.78
2023-03-11T20:58:43.421Z,100576.84
2023-03-11T21:01:15.187Z,100574.19
2023-03-11T21:03:42.933Z,100579.47
2023-03-11T21:06:22.949Z,100577.72
2023-03-11T21:08:49.921Z,100581.19
2023-03-11T21:11:17.605Z,100575.97
2023-03-11T21:13:44.517Z,100575.97
2023-03-11T21:16:10.990Z,100576.81
2023-03-11T21:18:37.427Z,100575.03
2023-03-11T21:21:04.442Z,100582.03
2023-03-11T21:23:30.859Z,100574.19
2023-03-11T21:26:01.296Z,100577.72
2023-03-11T21:28:28.098Z,100580.34
2023-03-11T21:30:59.201Z,100575.09
2023-03-11T21:33:26.227Z,100574.25
2023-03-11T21:35:57.470Z,100570.75
2023-03-11T21:38:24.700Z,100572.53
2023-03-11T21:40:51.769Z,100565.53
2023-03-11T21:43:19.508Z,100559.41
2023-03-11T21:45:46.404Z,100561.09
2023-03-11T21:48:13.851Z,100568.06
2023-03-11T21:50:41.650Z,100554.19
2023-03-11T21:53:08.123Z,100550.66
2023-03-11T21:55:34.888Z,100564.63
2023-03-11T21:58:01.352Z,100563.75
2023-03-11T22:00:27.705Z,100558.56
2023-03-11T22:02:54.105Z,100563.78
2023-03-11T22:05:20.481Z,100560.28
2023-03-11T22:07:46.809Z,100559.44
2023-03-11T22:10:13.163Z,100558.53
2023-03-11T22:12:39.660Z,100555.06
2023-03-11T22:15:06.554Z,100560.22
2023-03-11T22:17:33.145Z,100552.41
2023-03-11T22:19:59.817Z,100552.41
2023-03-11T22:22:26.183Z,100554.16
2023-03-11T22:24:52.459Z,100549.78
2023-03-11T22:27:18.711Z,100553.31
2023-03-11T22:29:44.993Z,100550.69
